createdAt,value
2018-05-14T00:00:01.320Z,15.1
2018-05-14T00:05:01.260Z,15.3
2018-05-14T00:10:01.355Z,15.0
2018-05-14T00:15:01.233Z,14.5
2018-05-14T00:20:01.389Z,14.2
2018-05-14T00:25:01.256Z,14.6
2018-05-14T00:30:01.334Z,14.3
2018-05-14T00:35:06.446Z,14.4
2018-05-14T00:40:01.278Z,14.6
2018-05-14T00:45:01.244Z,15.0
2018-05-14T00:50:01.398Z,15.2
2018-05-14T01:15:01.438Z,12.4
2018-05-14T01:20:01.408Z,15.3
2018-05-14T01:25:01.317Z,14.9
2018-05-14T01:30:01.332Z,14.2
2018-05-14T01:35:01.330Z,13.8
2018-05-14T01:40:01.531Z,14.5
2018-05-14T01:45:01.352Z,13.9
2018-05-14T01:50:01.485Z,14.5
2018-05-14T01:55:01.355Z,15.4
2018-05-14T02:00:01.734Z,16.1
2018-05-14T02:05:01.406Z,16.6
2018-05-14T02:10:01.416Z,16.6
2018-05-14T02:15:01.282Z,16.8
2018-05-14T02:20:01.389Z,16.7
2018-05-14T02:25:01.328Z,17.0
2018-05-14T02:30:01.387Z,17.0
2018-05-14T02:35:01.336Z,17.7
2018-05-14T02:40:01.429Z,17.8
2018-05-14T02:45:01.489Z,18.0
2018-05-14T02:50:01.404Z,18.2
2018-05-14T02:55:01.301Z,18.2
2018-05-14T03:00:01.535Z,18.2
2018-05-14T03:05:01.692Z,18.4
2018-05-14T03:10:01.409Z,18.6
2018-05-14T03:15:01.310Z,19.0
2018-05-14T03:20:01.341Z,19.6
2018-05-14T03:25:01.374Z,19.9
2018-05-14T03:30:01.409Z,19.6
2018-05-14T03:40:01.444Z,19.3
2018-05-14T03:45:01.377Z,18.8
2018-05-14T03:55:01.481Z,19.4
2018-05-14T04:15:01.251Z,22.8
2018-05-14T04:20:01.160Z,22.4
2018-05-14T04:25:01.309Z,21.5
2018-05-14T04:30:01.204Z,21.4
2018-05-14T04:35:01.072Z,21.3
2018-05-14T04:40:01.200Z,20.9
2018-05-14T04:45:01.115Z,20.9
2018-05-14T04:50:01.237Z,20.7
2018-05-14T04:55:01.080Z,20.3
2018-05-14T05:00:01.245Z,20.5
2018-05-14T05:05:01.131Z,20.2
2018-05-14T05:10:01.217Z,19.9
2018-05-14T05:15:01.096Z,19.5
2018-05-14T05:20:01.236Z,19.6
2018-05-14T05:25:06.129Z,18.8
2018-05-14T05:30:06.258Z,18.6
2018-05-14T05:35:06.123Z,18.6
2018-05-14T05:40:01.148Z,18.9
2018-05-14T05:45:06.136Z,18.8
2018-05-14T05:50:01.225Z,18.5
2018-05-14T05:55:01.163Z,18.4
2018-05-14T06:00:01.200Z,17.6
2018-05-14T06:05:01.167Z,17.8
2018-05-14T06:10:01.296Z,17.4
2018-05-14T06:15:01.146Z,17.2
2018-05-14T06:25:01.266Z,17.4
2018-05-14T06:30:01.199Z,17.2
2018-05-14T06:35:01.108Z,17.0
2018-05-14T06:40:01.222Z,18.4
2018-05-14T06:45:01.143Z,18.0
2018-05-14T06:50:01.215Z,17.9
2018-05-14T07:00:01.210Z,17.6
2018-05-14T07:05:01.144Z,16.2
2018-05-14T07:15:01.213Z,16.8
2018-05-14T07:20:01.210Z,16.4
2018-05-14T07:25:01.167Z,16.8
2018-05-14T07:30:01.212Z,16.5
2018-05-14T07:35:01.116Z,15.8
2018-05-14T07:40:01.377Z,15.4
2018-05-14T07:45:01.155Z,15.3
2018-05-14T07:50:01.224Z,15.2
2018-05-14T08:00:01.221Z,15.1
2018-05-14T08:05:01.156Z,15.1
2018-05-14T08:10:01.308Z,14.8
2018-05-14T08:15:01.164Z,14.6
2018-05-14T08:25:01.226Z,14.3
2018-05-14T08:30:01.176Z,14.1
2018-05-14T08:35:01.135Z,14.2
2018-05-14T08:40:01.203Z,14.4
2018-05-14T08:45:01.422Z,14.9
2018-05-14T08:50:01.321Z,14.8
2018-05-14T08:55:01.196Z,14.8
2018-05-14T09:00:01.348Z,15.0
2018-05-14T09:05:01.172Z,14.4
2018-05-14T09:10:01.273Z,14.3
2018-05-14T09:15:01.223Z,14.2
2018-05-14T09:20:01.342Z,14.3
2018-05-14T09:30:01.304Z,14.0
2018-05-14T09:35:01.176Z,13.8
2018-05-14T09:40:01.263Z,14.4
2018-05-14T09:45:01.118Z,14.7
2018-05-14T09:50:02.602Z,14.2
2018-05-14T09:55:01.181Z,14.7
2018-05-14T10:00:01.314Z,14.8
2018-05-14T10:05:01.155Z,14.1
2018-05-14T10:10:01.242Z,13.5
2018-05-14T10:15:01.216Z,14.3
2018-05-14T10:20:01.192Z,14.8
2018-05-14T10:25:01.292Z,15.4
2018-05-14T10:30:01.365Z,16.1
2018-05-14T10:35:01.228Z,16.5
2018-05-14T10:40:01.240Z,16.1
2018-05-14T10:45:01.141Z,15.8
2018-05-14T10:50:01.246Z,15.6
2018-05-14T10:55:01.234Z,15.5
2018-05-14T11:00:01.318Z,15.2
2018-05-14T11:05:01.341Z,15.3
2018-05-14T11:10:01.238Z,15.7
2018-05-14T11:15:01.244Z,15.7
2018-05-14T11:20:01.243Z,15.2
2018-05-14T11:30:01.243Z,15.3
2018-05-14T11:35:01.244Z,15.2
2018-05-14T11:40:01.274Z,14.5
2018-05-14T11:45:01.207Z,14.6
2018-05-14T11:50:01.319Z,13.8
2018-05-14T11:55:01.263Z,14.1
2018-05-14T12:00:01.372Z,13.4
2018-05-14T12:05:01.270Z,13.8
2018-05-14T12:10:01.490Z,13.6
2018-05-14T12:15:01.272Z,14.2
2018-05-14T12:20:01.333Z,14.8
2018-05-14T12:25:01.272Z,14.9
2018-05-14T12:30:01.319Z,14.9
2018-05-14T12:35:01.275Z,15.4
2018-05-14T12:40:01.297Z,15.1
2018-05-14T12:45:01.213Z,14.0
2018-05-14T12:50:01.334Z,14.4
2018-05-14T13:00:01.561Z,14.8
2018-05-14T13:05:01.273Z,15.6
2018-05-14T13:10:01.344Z,15.8
2018-05-14T13:15:01.285Z,15.8
2018-05-14T13:20:01.415Z,16.4
2018-05-14T13:25:01.284Z,17.0
2018-05-14T13:30:01.361Z,17.4
2018-05-14T13:35:01.291Z,17.8
2018-05-14T13:40:01.482Z,18.1
2018-05-14T13:45:01.300Z,18.2
2018-05-14T13:50:01.386Z,17.7
2018-05-14T13:55:01.332Z,17.3
2018-05-14T14:00:01.363Z,17.3
2018-05-14T14:05:01.540Z,16.8
2018-05-14T14:10:01.401Z,16.7
2018-05-14T14:15:01.297Z,17.0
2018-05-14T14:20:02.338Z,18.2
2018-05-14T14:25:01.321Z,18.0
2018-05-14T14:30:01.416Z,18.8
2018-05-14T14:35:01.318Z,18.8
2018-05-14T14:40:01.356Z,19.0
2018-05-14T14:45:01.293Z,19.2
2018-05-14T14:50:01.398Z,19.9
2018-05-14T14:55:01.292Z,20.3
2018-05-14T15:00:01.353Z,23.6
2018-05-14T15:05:01.321Z,24.1
2018-05-14T15:10:01.520Z,23.8
2018-05-14T15:15:01.361Z,24.3
2018-05-14T15:20:01.550Z,24.3
2018-05-14T15:25:01.308Z,21.2
2018-05-14T15:30:01.476Z,21.0
2018-05-14T15:35:01.331Z,20.8
2018-05-14T15:40:01.527Z,20.0
2018-05-14T15:45:01.304Z,19.9
2018-05-14T15:50:06.703Z,20.4
2018-05-14T15:55:01.312Z,20.6
2018-05-14T16:00:01.414Z,20.4
2018-05-14T16:05:01.342Z,20.7
2018-05-14T16:10:01.381Z,21.0
2018-05-14T16:15:01.348Z,21.4
2018-05-14T16:25:01.387Z,22.4
2018-05-14T16:30:01.420Z,23.2
2018-05-14T16:35:01.327Z,23.9
2018-05-14T16:40:01.608Z,23.9
2018-05-14T16:45:01.300Z,24.0
2018-05-14T16:50:01.554Z,24.8
2018-05-14T16:55:01.373Z,24.6
2018-05-14T17:00:01.434Z,24.1
2018-05-14T17:05:01.322Z,24.3
2018-05-14T17:10:01.387Z,24.5
2018-05-14T17:15:01.349Z,23.6
2018-05-14T17:20:01.412Z,24.0
2018-05-14T17:25:01.417Z,24.6
2018-05-14T17:30:01.418Z,25.4
2018-05-14T17:35:01.325Z,26.0
2018-05-14T17:40:01.419Z,28.3
2018-05-14T17:45:01.450Z,28.6
2018-05-14T17:50:01.617Z,29.6
2018-05-14T17:55:01.430Z,29.6
2018-05-14T18:00:01.404Z,30.0
2018-05-14T18:05:01.370Z,29.3
2018-05-14T18:10:01.428Z,30.0
2018-05-14T18:15:01.372Z,29.7
2018-05-14T18:20:01.655Z,29.8
2018-05-14T18:30:01.442Z,29.2
2018-05-14T18:35:01.344Z,29.2
2018-05-14T18:40:01.502Z,29.1
2018-05-14T18:45:01.468Z,29.1
2018-05-14T18:50:01.598Z,28.4
2018-05-14T18:55:01.359Z,29.1
2018-05-14T19:00:01.699Z,28.4
2018-05-14T19:05:01.445Z,28.0
2018-05-14T19:10:01.509Z,27.6
2018-05-14T19:15:01.387Z,28.0
2018-05-14T19:20:01.451Z,27.6
2018-05-14T19:25:01.385Z,28.0
2018-05-14T19:30:02.173Z,29.0
2018-05-14T19:35:01.390Z,28.9
2018-05-14T19:40:01.576Z,29.5
2018-05-14T19:45:01.396Z,28.9
2018-05-14T19:50:01.460Z,29.0
2018-05-14T19:55:01.463Z,28.7
2018-05-14T20:00:01.597Z,28.8
2018-05-14T20:05:01.402Z,28.7
2018-05-14T20:11:01.483Z,29.4
2018-05-14T20:16:01.370Z,29.0
2018-05-14T20:21:01.463Z,28.8
2018-05-14T20:26:01.364Z,29.4
2018-05-14T20:31:01.528Z,29.7
2018-05-14T20:36:01.398Z,29.8
2018-05-14T20:41:01.527Z,30.8
2018-05-14T20:47:01.357Z,31.5
2018-05-14T20:52:01.566Z,31.6
2018-05-14T20:57:01.319Z,31.4
2018-05-14T21:02:01.475Z,30.9
2018-05-14T21:07:01.445Z,30.6
2018-05-14T21:12:01.585Z,30.6
2018-05-14T21:17:01.409Z,30.4
2018-05-14T21:22:01.501Z,30.5
2018-05-14T21:27:01.402Z,31.0
2018-05-14T21:32:01.481Z,31.2
2018-05-14T21:42:01.451Z,32.1
2018-05-14T21:47:01.364Z,31.4
2018-05-14T21:52:01.553Z,31.4
2018-05-14T21:57:01.428Z,31.4
2018-05-14T22:02:01.701Z,31.5
2018-05-14T22:07:01.425Z,30.5
2018-05-14T22:12:01.484Z,31.6
2018-05-14T22:17:01.361Z,31.6
2018-05-14T22:22:01.529Z,32.2
2018-05-14T22:27:01.407Z,32.9
2018-05-14T22:32:01.515Z,33.0
2018-05-14T22:42:01.456Z,33.5
2018-05-14T22:47:01.390Z,33.4
2018-05-14T22:52:01.455Z,33.0
2018-05-14T22:57:01.390Z,33.5
2018-05-14T23:02:01.525Z,33.6
2018-05-14T23:07:01.445Z,33.6
2018-05-14T23:12:01.519Z,33.7
2018-05-14T23:17:01.418Z,34.3
2018-05-14T23:22:01.492Z,35.0
2018-05-14T23:27:01.425Z,35.0
2018-05-14T23:32:01.463Z,35.2
2018-05-14T23:42:01.534Z,35.8
2018-05-14T23:47:01.366Z,35.9
2018-05-14T23:52:01.430Z,36.6
2018-05-14T23:57:01.398Z,36.4
